Aviation Digital Data Service (ADDS)

Output produced by METARs form (0414 UTC 25 October 2014)
found at http://www.aviationweather.gov/adds/metars/
 
KROW 250351Z 20005KT 10SM CLR 16/12 A3017 RMK AO2 SLP174 T01560122
KROW 250251Z 19007KT 10SM CLR 17/13 A3016 RMK AO2 SLP171 T01670128 53011
KROW 250151Z 17006KT 10SM CLR 18/13 A3014 RMK AO2 SLP169 T01830133
KROW 250051Z 17007KT 10SM CLR 21/14 A3013 RMK AO2 SLP162 T02060139
KROW 242351Z 16007KT 10SM CLR 25/12 A3012 RMK AO2 SLP154 T02500117 10283 20233 58003
KROW 242251Z 16009KT 10SM CLR 28/09 A3013 RMK AO2 SLP153 T02780094
KROW 242151Z 16011KT 10SM CLR 28/08 A3013 RMK AO2 SLP147 T02830083
KROW 242051Z 15009KT 10SM CLR 28/08 A3013 RMK AO2 SLP152 T02830078 56023
KROW 241951Z 14008KT 10SM CLR 28/10 A3015 RMK AO2 SLP158 T02780100
KROW 241851Z 17006KT 10SM CLR 26/13 A3018 RMK AO2 SLP170 T02560128
KROW 241751Z VRB03KT 10SM CLR 23/12 A3021 RMK AO2 SLP181 T02330117 10233 20094 58000
KROW 241651Z 00000KT 10SM CLR 20/12 A3023 RMK AO2 SLP190 T02000122
KROW 241551Z 06003KT 10SM CLR 16/12 A3022 RMK AO2 SLP194 T01610122
KROW 241451Z 03003KT 10SM CLR 14/10 A3021 RMK AO2 SLP189 T01390100 53013
KROW 241351Z 29004KT 10SM CLR 12/08 A3019 RMK AO2 SLP184 T01170083
KROW 241251Z 00000KT 10SM CLR 10/07 A3018 RMK AO2 SLP181 T01000072
KROW 241151Z 25004KT 10SM CLR 09/08 A3017 RMK AO2 SLP174 T00940078 10144 20089 53003
KROW 241051Z AUTO 12004KT 10SM CLR 10/08 A3016 RMK AO2 SLP168 T01000083
KROW 240951Z AUTO 36003KT 10SM CLR 13/09 A3015 RMK AO2 SLP157 T01330089
KROW 240851Z AUTO 00000KT 10SM CLR 12/10 A3016 RMK AO2 SLP164 T01170100 50002
KROW 240751Z AUTO 20004KT 10SM CLR 12/11 A3016 RMK AO2 SLP167 T01170106
KROW 240651Z AUTO 00000KT 10SM CLR 14/12 A3015 RMK AO2 SLP165 T01390122 402610128
KROW 240551Z AUTO 00000KT 10SM CLR 14/13 A3015 RMK AO2 SLP166 T01440128 10228 20144 51006
KROW 240451Z AUTO 00000KT 10SM CLR 16/13 A3015 RMK AO2 SLP169 T01560133
KROW 242321Z 2500/2524 16010KT P6SM SKC 
     FM250200 VRB05KT P6SM SKC 
     FM251700 15007KT P6SM SKC